createdAt,value
2019-04-11T00:02:02.619Z,78.80
2019-04-11T00:04:30.226Z,78.90
2019-04-11T00:06:58.065Z,79.00
2019-04-11T00:09:24.860Z,79.10
2019-04-11T00:11:52.361Z,78.90
2019-04-11T00:14:19.931Z,79.00
2019-04-11T00:16:47.625Z,79.50
2019-04-11T00:19:14.236Z,79.60
2019-04-11T00:21:41.306Z,79.60
2019-04-11T00:24:07.888Z,79.70
2019-04-11T00:26:34.466Z,79.60
2019-04-11T00:29:01.779Z,79.60
2019-04-11T00:31:28.548Z,79.40
2019-04-11T00:33:56.259Z,79.70
2019-04-11T00:36:22.871Z,79.80
2019-04-11T00:38:50.388Z,79.80
2019-04-11T00:41:17.573Z,80.00
2019-04-11T00:43:45.493Z,80.00
2019-04-11T00:46:12.676Z,79.80
2019-04-11T00:48:39.370Z,79.70
2019-04-11T00:51:06.324Z,80.00
2019-04-11T00:53:33.995Z,79.90
2019-04-11T00:56:00.625Z,79.70
2019-04-11T00:58:27.733Z,79.80
2019-04-11T01:00:55.545Z,79.80
2019-04-11T01:03:22.167Z,80.20
2019-04-11T01:05:49.815Z,80.30
2019-04-11T01:08:17.629Z,80.40
2019-04-11T01:10:45.526Z,80.50
2019-04-11T01:13:14.136Z,80.60
2019-04-11T01:15:42.854Z,80.50
2019-04-11T01:18:09.756Z,80.60
2019-04-11T01:20:36.367Z,80.60
2019-04-11T01:23:03.209Z,80.60
2019-04-11T01:25:30.682Z,80.50
2019-04-11T01:27:58.396Z,80.40
2019-04-11T01:30:29.090Z,80.00
2019-04-11T01:32:56.956Z,80.60
2019-04-11T01:35:23.552Z,80.90
2019-04-11T01:37:50.280Z,80.40
2019-04-11T01:40:17.890Z,80.40
2019-04-11T01:42:44.754Z,80.50
2019-04-11T01:45:13.517Z,80.90
2019-04-11T01:47:42.746Z,81.30
2019-04-11T01:50:11.115Z,81.50
2019-04-11T01:52:38.298Z,82.00
2019-04-11T01:55:05.285Z,82.10
2019-04-11T01:57:31.923Z,82.20
2019-04-11T01:59:59.602Z,82.30
2019-04-11T02:02:28.703Z,82.40
2019-04-11T02:04:58.593Z,82.30
2019-04-11T02:07:25.235Z,82.30
2019-04-11T02:09:52.594Z,82.30
2019-04-11T02:12:19.793Z,82.50
2019-04-11T02:14:47.979Z,82.60
2019-04-11T02:17:14.745Z,82.60
2019-04-11T02:19:41.238Z,82.10
2019-04-11T02:22:24.648Z,82.00
2019-04-11T02:24:56.337Z,82.10
2019-04-11T02:27:25.980Z,81.90
2019-04-11T02:29:53.089Z,82.00
2019-04-11T02:32:22.719Z,81.90
2019-04-11T02:34:50.564Z,81.60
2019-04-11T02:37:17.389Z,81.80
2019-04-11T02:39:44.479Z,81.90
2019-04-11T02:42:11.454Z,82.10
2019-04-11T02:44:56.022Z,82.00
2019-04-11T02:47:11.776Z,82.10
2019-04-11T02:49:35.651Z,82.10
2019-04-11T02:52:02.726Z,82.00
2019-04-11T02:54:30.576Z,82.10
2019-04-11T02:56:58.324Z,82.10
2019-04-11T02:59:27.263Z,82.30
2019-04-11T03:01:53.887Z,82.50
2019-04-11T03:04:22.757Z,82.50
2019-04-11T03:06:49.816Z,82.60
2019-04-11T03:09:17.714Z,82.50
2019-04-11T03:11:45.176Z,82.30
2019-04-11T03:14:12.575Z,82.50
2019-04-11T03:16:53.391Z,82.70
2019-04-11T03:19:21.113Z,82.60
2019-04-11T03:21:41.329Z,82.70
2019-04-11T03:24:08.335Z,82.80
2019-04-11T03:26:35.472Z,82.70
2019-04-11T03:29:03.915Z,82.70
2019-04-11T03:32:12.106Z,82.80
2019-04-11T03:34:51.820Z,82.80
2019-04-11T03:39:17.664Z,82.50
2019-04-11T03:41:40.620Z,82.60
2019-04-11T03:44:05.837Z,82.50
2019-04-11T03:46:38.129Z,82.80
2019-04-11T03:49:02.722Z,82.70
2019-04-11T03:51:22.587Z,82.50
2019-04-11T03:53:51.350Z,82.40
2019-04-11T03:56:19.802Z,82.80
2019-04-11T03:58:48.077Z,83.10
2019-04-11T04:01:16.207Z,83.10
2019-04-11T04:03:44.575Z,83.30
2019-04-11T04:06:12.838Z,83.40
2019-04-11T04:08:39.815Z,83.30
2019-04-11T04:11:16.342Z,83.60
2019-04-11T04:14:03.743Z,83.50
2019-04-11T04:16:45.214Z,83.60
2019-04-11T04:19:15.707Z,83.60
2019-04-11T04:21:49.053Z,83.70
2019-04-11T04:24:30.030Z,83.70
2019-04-11T04:26:57.001Z,83.70
2019-04-11T04:29:25.696Z,83.60
2019-04-11T04:31:53.673Z,83.40
2019-04-11T04:34:21.850Z,83.50
2019-04-11T04:36:49.725Z,83.60
2019-04-11T04:39:17.380Z,83.50
2019-04-11T04:41:53.074Z,83.00
2019-04-11T04:44:14.459Z,82.70
2019-04-11T04:46:55.433Z,82.50
2019-04-11T04:49:09.795Z,82.20
2019-04-11T04:51:39.035Z,81.90
2019-04-11T04:54:06.011Z,81.80
2019-04-11T04:56:34.788Z,81.60
2019-04-11T04:59:02.575Z,81.20
2019-04-11T05:01:31.251Z,81.10
2019-04-11T05:03:58.334Z,81.30
2019-04-11T05:06:26.193Z,81.50
2019-04-11T05:08:52.799Z,81.80
2019-04-11T05:11:19.373Z,81.70
2019-04-11T05:13:49.291Z,81.90
2019-04-11T05:16:17.510Z,81.90
2019-04-11T05:18:42.469Z,81.80
2019-04-11T05:21:08.969Z,81.40
2019-04-11T05:23:35.537Z,81.40
2019-04-11T05:26:03.394Z,81.10
2019-04-11T05:28:29.924Z,80.90
2019-04-11T05:30:56.522Z,80.60
2019-04-11T05:33:23.277Z,80.60
2019-04-11T05:35:50.076Z,80.30
2019-04-11T05:38:16.744Z,79.90
2019-04-11T05:40:43.263Z,79.80
2019-04-11T05:43:09.770Z,79.90
2019-04-11T05:45:36.438Z,79.80
2019-04-11T05:48:05.241Z,79.80
2019-04-11T05:50:32.288Z,79.70
2019-04-11T05:53:01.272Z,79.90
2019-04-11T05:55:29.953Z,79.70
2019-04-11T05:57:58.546Z,79.90
2019-04-11T06:00:30.486Z,79.40
2019-04-11T06:03:01.857Z,79.20
2019-04-11T06:05:37.876Z,78.90
2019-04-11T06:08:06.864Z,78.90
2019-04-11T06:10:37.083Z,78.30
2019-04-11T06:13:24.562Z,77.70
2019-04-11T06:16:02.339Z,77.50
2019-04-11T06:18:37.765Z,77.30
2019-04-11T06:21:07.745Z,77.30
2019-04-11T06:23:39.185Z,77.30
2019-04-11T06:26:09.198Z,76.20
2019-04-11T06:28:36.108Z,75.50
2019-04-11T06:31:05.972Z,75.20
2019-04-11T06:33:34.536Z,74.90
2019-04-11T06:36:20.880Z,74.40
2019-04-11T06:38:52.288Z,74.30
2019-04-11T06:41:26.511Z,73.80
2019-04-11T06:44:04.773Z,73.20
2019-04-11T06:46:49.665Z,73.00
2019-04-11T06:49:18.395Z,72.00
2019-04-11T06:51:50.439Z,71.10
2019-04-11T06:54:33.938Z,70.70
2019-04-11T06:57:02.549Z,69.70
2019-04-11T06:59:30.852Z,68.60
2019-04-11T07:02:08.803Z,69.00
2019-04-11T07:04:33.569Z,68.50
2019-04-11T07:07:02.340Z,67.20
2019-04-11T07:09:49.228Z,66.50
2019-04-11T07:12:24.454Z,66.10
2019-04-11T07:15:00.080Z,65.40
2019-04-11T07:17:45.889Z,64.50
2019-04-11T07:20:27.313Z,64.30
2019-04-11T07:23:13.520Z,64.50
2019-04-11T07:26:00.367Z,65.00
2019-04-11T07:28:41.478Z,64.10
2019-04-11T07:31:21.355Z,65.00
2019-04-11T07:33:59.712Z,65.00
2019-04-11T07:36:46.243Z,64.30
2019-04-11T07:39:14.801Z,63.10
2019-04-11T07:41:43.830Z,62.90
2019-04-11T07:44:13.453Z,64.20
2019-04-11T07:46:51.555Z,64.80
2019-04-11T07:49:37.224Z,64.70
2019-04-11T07:52:11.795Z,65.50
2019-04-11T07:54:39.007Z,66.40
2019-04-11T07:57:08.373Z,66.60
2019-04-11T07:59:37.652Z,65.90
2019-04-11T08:02:18.170Z,65.50
2019-04-11T08:04:53.232Z,65.50
2019-04-11T08:07:38.332Z,64.80
2019-04-11T08:10:12.724Z,63.90
2019-04-11T08:12:39.429Z,63.20
2019-04-11T08:15:20.331Z,63.50
2019-04-11T08:17:47.999Z,63.10
2019-04-11T08:20:33.236Z,61.80
2019-04-11T08:23:01.872Z,60.90
2019-04-11T08:25:33.516Z,60.90
2019-04-11T08:28:04.228Z,59.30
2019-04-11T08:30:35.108Z,58.40
2019-04-11T08:33:07.446Z,58.30
2019-04-11T08:35:38.211Z,58.20
2019-04-11T08:38:12.009Z,57.80
2019-04-11T08:40:57.085Z,56.80
2019-04-11T08:43:31.519Z,56.80
2019-04-11T08:46:16.452Z,55.90
2019-04-11T08:48:45.628Z,55.90
2019-04-11T08:51:14.851Z,55.40
2019-04-11T08:53:43.421Z,54.70
2019-04-11T08:56:10.614Z,53.80
2019-04-11T08:58:39.072Z,55.10
2019-04-11T09:01:07.654Z,55.70
2019-04-11T09:03:36.083Z,55.90
2019-04-11T09:06:08.433Z,55.50
2019-04-11T09:08:37.143Z,55.00
2019-04-11T09:11:06.581Z,53.90
2019-04-11T09:13:44.411Z,54.60
2019-04-11T09:16:15.733Z,54.30
2019-04-11T09:18:44.077Z,54.70
2019-04-11T09:21:28.945Z,56.10
2019-04-11T09:23:55.343Z,56.20
2019-04-11T09:26:27.639Z,56.30
2019-04-11T09:28:54.545Z,55.20
2019-04-11T09:31:37.866Z,55.60
2019-04-11T09:34:13.224Z,55.50
2019-04-11T09:36:41.849Z,55.90
2019-04-11T09:39:10.764Z,56.70
2019-04-11T09:41:42.741Z,56.40
2019-04-11T09:44:20.410Z,57.10
2019-04-11T09:47:03.886Z,58.30
2019-04-11T09:49:36.227Z,58.80
2019-04-11T09:52:08.783Z,59.10
2019-04-11T09:54:50.493Z,59.40
2019-04-11T09:57:22.821Z,60.20
2019-04-11T09:59:51.825Z,59.80
2019-04-11T10:02:36.613Z,60.00
2019-04-11T10:05:05.447Z,60.10
2019-04-11T10:07:44.034Z,60.40
2019-04-11T10:10:19.044Z,59.50
2019-04-11T10:13:04.704Z,59.90
2019-04-11T10:15:39.771Z,59.50
2019-04-11T10:18:27.790Z,58.70
2019-04-11T10:20:54.989Z,58.60
2019-04-11T10:23:40.934Z,57.70
2019-04-11T10:26:07.662Z,57.70
2019-04-11T10:28:52.285Z,57.60
2019-04-11T10:31:20.197Z,57.70
2019-04-11T10:33:49.099Z,56.90
2019-04-11T10:36:27.396Z,57.10
2019-04-11T10:39:02.693Z,57.30
2019-04-11T10:41:31.183Z,57.30
2019-04-11T10:43:59.343Z,57.00
2019-04-11T10:46:45.589Z,56.50
2019-04-11T10:49:14.051Z,56.30
2019-04-11T10:51:45.600Z,55.30
2019-04-11T10:54:13.635Z,55.00
2019-04-11T10:56:58.564Z,55.10
2019-04-11T10:59:30.325Z,55.60
2019-04-11T11:02:01.751Z,55.70
2019-04-11T11:04:36.756Z,55.00
2019-04-11T11:07:06.387Z,54.90
2019-04-11T11:09:46.670Z,54.80
2019-04-11T11:12:25.234Z,54.00
2019-04-11T11:15:11.589Z,54.60
2019-04-11T11:18:00.952Z,54.70
2019-04-11T11:20:36.307Z,54.40
2019-04-11T11:23:00.166Z,54.20
2019-04-11T11:25:44.449Z,53.90
2019-04-11T11:28:09.649Z,53.70
2019-04-11T11:30:37.911Z,54.00
2019-04-11T11:33:05.590Z,53.40
2019-04-11T11:35:50.009Z,52.70
2019-04-11T11:38:19.798Z,52.60
2019-04-11T11:40:58.312Z,52.80
2019-04-11T11:43:27.494Z,52.70
2019-04-11T11:45:59.055Z,53.40
2019-04-11T11:48:33.407Z,53.30
2019-04-11T11:51:01.930Z,53.30
2019-04-11T11:53:42.804Z,53.50
2019-04-11T11:56:11.675Z,54.20
2019-04-11T11:58:51.894Z,54.80
2019-04-11T12:01:15.967Z,54.90
2019-04-11T12:03:50.787Z,55.50
2019-04-11T12:06:22.311Z,55.30
2019-04-11T12:09:02.486Z,55.00
2019-04-11T12:11:30.268Z,54.80
2019-04-11T12:14:07.742Z,54.70
2019-04-11T12:16:51.859Z,55.00
2019-04-11T12:19:22.307Z,54.50
2019-04-11T12:21:51.507Z,54.90
2019-04-11T12:24:36.566Z,55.70
2019-04-11T12:27:18.259Z,55.90
2019-04-11T12:30:07.053Z,55.80
2019-04-11T12:32:35.272Z,55.40
2019-04-11T12:35:33.033Z,55.60
2019-04-11T12:38:02.141Z,55.70
2019-04-11T12:40:42.330Z,55.20
2019-04-11T12:43:10.870Z,54.90
2019-04-11T12:45:47.993Z,55.20
2019-04-11T12:48:14.765Z,55.00
2019-04-11T12:50:51.792Z,56.00
2019-04-11T12:53:18.406Z,56.20
2019-04-11T12:55:46.823Z,56.70
2019-04-11T12:58:21.099Z,57.60
2019-04-11T13:00:52.383Z,57.50
2019-04-11T13:03:35.927Z,57.80
2019-04-11T13:06:04.451Z,57.90
2019-04-11T13:08:50.163Z,58.10
2019-04-11T13:11:18.575Z,57.50
2019-04-11T13:14:03.631Z,57.50
2019-04-11T13:16:30.063Z,57.50
2019-04-11T13:19:10.309Z,57.90
2019-04-11T13:21:41.401Z,57.70
2019-04-11T13:24:21.759Z,57.60
2019-04-11T13:27:07.119Z,58.10
2019-04-11T13:29:38.199Z,58.40
2019-04-11T13:32:08.086Z,58.40
2019-04-11T13:34:39.407Z,58.20
2019-04-11T13:37:16.694Z,57.80
2019-04-11T13:39:46.676Z,58.10
2019-04-11T13:42:24.417Z,58.20
2019-04-11T13:44:50.878Z,57.90
2019-04-11T13:47:22.216Z,58.50
2019-04-11T13:49:50.824Z,58.70
2019-04-11T13:52:37.551Z,58.50
2019-04-11T13:55:08.752Z,58.70
2019-04-11T13:57:46.581Z,58.60
2019-04-11T14:00:32.551Z,58.60
2019-04-11T14:03:01.051Z,59.00
2019-04-11T14:05:29.483Z,58.90
2019-04-11T14:07:57.533Z,58.90
2019-04-11T14:10:24.669Z,59.10
2019-04-11T14:12:53.202Z,58.50
2019-04-11T14:15:24.322Z,58.30
2019-04-11T14:18:11.695Z,57.90
2019-04-11T14:20:41.972Z,58.00
2019-04-11T14:23:13.633Z,58.10
2019-04-11T14:25:46.836Z,57.70
2019-04-11T14:28:15.533Z,58.00
2019-04-11T14:30:43.982Z,57.80
2019-04-11T14:33:10.522Z,57.80
2019-04-11T14:35:50.726Z,58.00
2019-04-11T14:38:19.213Z,58.30
2019-04-11T14:40:47.744Z,58.20
2019-04-11T14:43:19.043Z,58.20
2019-04-11T14:45:53.825Z,57.70
2019-04-11T14:48:22.553Z,57.10
2019-04-11T14:51:03.189Z,56.50
2019-04-11T14:53:50.616Z,57.00
2019-04-11T14:56:21.977Z,56.50
2019-04-11T14:58:53.849Z,57.10
2019-04-11T15:01:23.678Z,57.30
2019-04-11T15:04:08.680Z,57.60
2019-04-11T15:06:49.087Z,57.70
2019-04-11T15:09:33.993Z,57.90
2019-04-11T15:12:02.390Z,58.00
2019-04-11T15:14:36.454Z,58.20
2019-04-11T15:17:13.572Z,58.10
2019-04-11T15:19:42.102Z,58.30
2019-04-11T15:22:10.571Z,58.20
2019-04-11T15:24:39.054Z,58.30
2019-04-11T15:27:24.016Z,58.50
2019-04-11T15:29:50.691Z,58.10
2019-04-11T15:32:24.841Z,58.00
2019-04-11T15:34:52.922Z,58.10
2019-04-11T15:37:39.441Z,58.10
2019-04-11T15:40:11.404Z,58.40
2019-04-11T15:42:48.901Z,59.10
2019-04-11T15:45:23.273Z,60.00
2019-04-11T15:48:00.659Z,60.90
2019-04-11T15:50:30.630Z,61.70
2019-04-11T15:52:59.163Z,62.60
2019-04-11T15:55:27.527Z,62.70
2019-04-11T15:57:54.046Z,62.80
2019-04-11T16:00:38.780Z,62.70
2019-04-11T16:03:06.219Z,63.00
2019-04-11T16:05:43.806Z,62.80
2019-04-11T16:08:12.206Z,62.50
2019-04-11T16:10:41.939Z,62.70
2019-04-11T16:13:14.016Z,63.10
2019-04-11T16:15:42.342Z,63.00
2019-04-11T16:18:10.940Z,63.30
2019-04-11T16:20:37.488Z,63.40
2019-04-11T16:23:26.155Z,63.40
2019-04-11T16:25:52.577Z,63.50
2019-04-11T16:28:21.150Z,63.60
2019-04-11T16:30:49.293Z,63.70
2019-04-11T16:33:20.395Z,64.00
2019-04-11T16:36:01.133Z,64.10
2019-04-11T16:38:35.286Z,64.00
2019-04-11T16:41:06.763Z,64.20
2019-04-11T16:43:33.178Z,64.00
2019-04-11T16:46:01.494Z,63.80
2019-04-11T16:48:28.469Z,64.20
2019-04-11T16:50:54.930Z,64.20
2019-04-11T16:53:21.458Z,64.10
2019-04-11T16:55:48.031Z,64.10
2019-04-11T16:58:16.955Z,64.20
2019-04-11T17:00:42.863Z,64.00
2019-04-11T17:03:09.548Z,64.20
2019-04-11T17:05:37.354Z,65.10
2019-04-11T17:08:08.381Z,64.20
2019-04-11T17:10:56.727Z,64.40
2019-04-11T17:13:23.796Z,64.10
2019-04-11T17:15:49.749Z,64.30
2019-04-11T17:18:18.860Z,63.80
2019-04-11T17:20:44.650Z,64.10
2019-04-11T17:23:11.273Z,64.30
2019-04-11T17:25:37.833Z,64.40
2019-04-11T17:28:04.439Z,64.60
2019-04-11T17:30:30.853Z,64.60
2019-04-11T17:32:57.320Z,64.60
2019-04-11T17:35:23.852Z,64.50
2019-04-11T17:37:50.489Z,64.30
2019-04-11T17:40:17.001Z,64.60
2019-04-11T17:42:44.510Z,64.90
2019-04-11T17:45:11.095Z,65.20
2019-04-11T17:47:37.707Z,65.30
2019-04-11T17:50:05.874Z,65.80
2019-04-11T17:52:32.293Z,65.70
2019-04-11T17:55:00.227Z,65.60
2019-04-11T17:57:27.668Z,65.90
2019-04-11T17:59:54.373Z,65.70
2019-04-11T18:02:20.907Z,65.80
2019-04-11T18:04:48.009Z,65.60
2019-04-11T18:07:16.840Z,65.70
2019-04-11T18:09:42.790Z,66.00
2019-04-11T18:12:09.343Z,66.00
2019-04-11T18:14:35.955Z,65.80
2019-04-11T18:17:04.604Z,65.60
2019-04-11T18:19:31.104Z,65.70
2019-04-11T18:22:07.385Z,65.50
2019-04-11T18:24:25.941Z,65.40
2019-04-11T18:26:52.564Z,65.40
2019-04-11T18:29:22.746Z,65.30
2019-04-11T18:31:48.277Z,65.20
2019-04-11T18:34:14.846Z,64.80
2019-04-11T18:36:41.366Z,64.50
2019-04-11T18:39:08.144Z,64.60
2019-04-11T18:41:34.782Z,64.30
2019-04-11T18:44:01.402Z,63.90
2019-04-11T18:46:27.974Z,63.80
2019-04-11T18:48:54.677Z,64.10
2019-04-11T18:51:23.199Z,64.20
2019-04-11T18:53:49.792Z,64.30
2019-04-11T18:56:16.429Z,64.50
2019-04-11T18:58:43.010Z,64.60
2019-04-11T19:01:10.108Z,64.40
2019-04-11T19:03:36.742Z,64.80
2019-04-11T19:06:03.445Z,65.30
2019-04-11T19:08:30.229Z,65.10
2019-04-11T19:10:57.105Z,64.70
2019-04-11T19:13:24.237Z,65.40
2019-04-11T19:15:52.621Z,65.70
2019-04-11T19:18:19.204Z,65.60
2019-04-11T19:20:50.015Z,65.70
2019-04-11T19:23:14.720Z,65.70
2019-04-11T19:25:44.492Z,66.40
2019-04-11T19:28:09.922Z,66.60
2019-04-11T19:30:36.542Z,66.90
2019-04-11T19:33:04.185Z,67.10
2019-04-11T19:35:30.755Z,67.30
2019-04-11T19:37:58.322Z,67.70
2019-04-11T19:40:24.950Z,68.10
2019-04-11T19:42:51.568Z,68.30
2019-04-11T19:45:19.397Z,68.70
2019-04-11T19:47:46.714Z,68.70
2019-04-11T19:50:16.242Z,68.90
2019-04-11T19:52:45.831Z,69.20
2019-04-11T19:55:14.696Z,69.40
2019-04-11T19:57:41.414Z,69.60
2019-04-11T20:00:10.135Z,69.60
2019-04-11T20:02:36.708Z,69.90
2019-04-11T20:05:03.833Z,70.10
2019-04-11T20:07:30.249Z,69.70
2019-04-11T20:09:58.503Z,70.00
2019-04-11T20:12:25.102Z,70.20
2019-04-11T20:14:51.647Z,70.50
2019-04-11T20:17:19.290Z,70.50
2019-04-11T20:19:46.302Z,70.70
2019-04-11T20:22:13.124Z,70.50
2019-04-11T20:24:39.942Z,70.40
2019-04-11T20:27:09.454Z,70.40
2019-04-11T20:29:35.944Z,70.50
2019-04-11T20:32:02.584Z,70.50
2019-04-11T20:34:29.091Z,70.20
2019-04-11T20:36:55.599Z,70.50
2019-04-11T20:39:22.114Z,70.30
2019-04-11T20:41:48.522Z,70.10
2019-04-11T20:44:15.196Z,70.10
2019-04-11T20:46:42.165Z,69.80
2019-04-11T20:49:08.721Z,69.70
2019-04-11T20:51:35.807Z,69.90
2019-04-11T20:54:06.998Z,69.90
2019-04-11T20:56:31.132Z,70.00
2019-04-11T20:58:59.711Z,70.10
2019-04-11T21:01:26.801Z,70.40
2019-04-11T21:03:53.584Z,69.60
2019-04-11T21:06:20.339Z,69.60
2019-04-11T21:08:46.923Z,69.60
2019-04-11T21:11:13.444Z,69.70
2019-04-11T21:13:39.868Z,69.00
2019-04-11T21:16:06.731Z,69.10
2019-04-11T21:18:33.603Z,68.80
2019-04-11T21:21:00.241Z,68.80
2019-04-11T21:23:29.495Z,68.90
2019-04-11T21:25:58.912Z,68.60
2019-04-11T21:28:23.676Z,68.50
2019-04-11T21:30:50.783Z,68.60
2019-04-11T21:35:54.656Z,68.80
2019-04-11T21:38:21.139Z,68.70
2019-04-11T21:40:47.666Z,68.60
2019-04-11T21:43:14.365Z,68.60
2019-04-11T21:45:40.906Z,68.40
2019-04-11T21:48:07.427Z,68.30
2019-04-11T21:50:34.012Z,68.50
2019-04-11T21:53:01.012Z,68.40
2019-04-11T21:55:27.590Z,68.10
2019-04-11T21:57:55.967Z,67.70
2019-04-11T22:00:31.320Z,68.00
2019-04-11T22:03:00.869Z,68.00
2019-04-11T22:05:29.311Z,67.70
2019-04-11T22:07:55.927Z,67.60
2019-04-11T22:10:22.449Z,67.80
2019-04-11T22:12:49.109Z,68.30
2019-04-11T22:15:15.837Z,68.60
2019-04-11T22:17:42.979Z,68.80
2019-04-11T22:20:11.013Z,68.80
2019-04-11T22:22:37.605Z,68.60
2019-04-11T22:25:06.172Z,68.80
2019-04-11T22:27:32.708Z,69.00
2019-04-11T22:29:59.268Z,69.50
2019-04-11T22:32:26.418Z,69.50
2019-04-11T22:34:53.174Z,69.40
2019-04-11T22:37:19.695Z,69.40
2019-04-11T22:39:46.244Z,69.60
2019-04-11T22:42:13.071Z,69.80
2019-04-11T22:44:39.624Z,69.80
2019-04-11T22:47:08.031Z,69.90
2019-04-11T22:49:36.746Z,69.90
2019-04-11T22:52:03.486Z,70.10
2019-04-11T22:54:30.105Z,69.90
2019-04-11T22:56:56.735Z,69.90
2019-04-11T22:59:23.709Z,70.00
2019-04-11T23:01:51.791Z,70.00
2019-04-11T23:04:18.711Z,69.90
2019-04-11T23:06:47.266Z,69.70
2019-04-11T23:09:13.572Z,69.70
2019-04-11T23:11:40.160Z,69.50
2019-04-11T23:14:07.036Z,69.60
2019-04-11T23:16:33.672Z,69.40
2019-04-11T23:19:00.328Z,69.30
2019-04-11T23:21:26.957Z,69.20
2019-04-11T23:23:53.676Z,69.40
2019-04-11T23:26:20.244Z,69.40
2019-04-11T23:28:46.970Z,69.10
2019-04-11T23:31:13.956Z,69.30
2019-04-11T23:33:40.586Z,69.50
2019-04-11T23:36:07.200Z,69.40
2019-04-11T23:38:33.754Z,69.30
2019-04-11T23:41:00.282Z,69.30
2019-04-11T23:43:26.917Z,69.30
2019-04-11T23:45:53.473Z,69.50
2019-04-11T23:48:23.768Z,69.10
2019-04-11T23:50:48.366Z,69.30
2019-04-11T23:53:14.965Z,69.10
2019-04-11T23:55:41.582Z,69.20
2019-04-11T23:58:08.089Z,68.90
